Wetterdaten: Montag, 25.10.2010
Datum Zeit Temp. A. Feuchte A. Luftdruck Regen Wind Richtung Richtung Sonnenschein UV Solar Windben
25.10.2010 00:00 4,8 C 85 % 1013,7 hPa 0,0 mm 0,4 km/h (0 Bft) W 268 0 min 0 UV-I 0 W/m 4,8 km/h (1 Bft)
25.10.2010 00:10 4,7 C 85 % 1013,8 hPa 0,0 mm 0,3 km/h (0 Bft) W 269 0 min 0 UV-I 0 W/m 4,8 km/h (1 Bft)
25.10.2010 00:20 4,7 C 85 % 1013,8 hPa 0,0 mm 0,0 km/h (0 Bft) W 270 0 min 0 UV-I 0 W/m 1,6 km/h (1 Bft)
25.10.2010 00:30 4,6 C 85 % 1013,9 hPa 0,0 mm 0,0 km/h (0 Bft) W 270 0 min 0 UV-I 0 W/m 1,6 km/h (1 Bft)
25.10.2010 00:40 4,3 C 85 % 1013,9 hPa 0,0 mm 0,0 km/h (0 Bft) W 270 0 min 0 UV-I 0 W/m 1,6 km/h (1 Bft)
25.10.2010 00:50 4,2 C 85 % 1013,9 hPa 0,0 mm 0,0 km/h (0 Bft) W 270 0 min 0 UV-I 0 W/m 1,6 km/h (1 Bft)
25.10.2010 01:00 4,0 C 84 % 1014,0 hPa 0,0 mm 0,0 km/h (0 Bft) W 270 0 min 0 UV-I 0 W/m 1,6 km/h (1 Bft)
25.10.2010 01:10 3,8 C 84 % 1014,2 hPa 0,0 mm 0,0 km/h (0 Bft) N 0 0 min 0 UV-I 0 W/m 0,0 km/h (0 Bft)
25.10.2010 01:20 3,6 C 84 % 1014,2 hPa 0,0 mm 0,0 km/h (0 Bft) N 0 0 min 0 UV-I 0 W/m 0,0 km/h (0 Bft)
25.10.2010 01:30 3,3 C 84 % 1014,3 hPa 0,0 mm 0,0 km/h (0 Bft) N 0 0 min 0 UV-I 0 W/m 0,0 km/h (0 Bft)
25.10.2010 01:40 3,1 C 84 % 1014,5 hPa 0,0 mm 0,0 km/h (0 Bft) N 0 0 min 0 UV-I 0 W/m 0,0 km/h (0 Bft)
25.10.2010 01:50 2,9 C 84 % 1014,6 hPa 0,0 mm 0,0 km/h (0 Bft) W 270 0 min 0 UV-I 0 W/m 1,6 km/h (1 Bft)
25.10.2010 02:00 2,7 C 84 % 1014,8 hPa 0,0 mm 0,0 km/h (0 Bft) N 0 0 min 0 UV-I 0 W/m 0,0 km/h (0 Bft)
25.10.2010 02:10 2,6 C 85 % 1014,9 hPa 0,0 mm 0,0 km/h (0 Bft) W 270 0 min 0 UV-I 0 W/m 1,6 km/h (1 Bft)
25.10.2010 02:20 2,4 C 85 % 1015,0 hPa 0,0 mm 0,0 km/h (0 Bft) W 270 0 min 0 UV-I 0 W/m 1,6 km/h (1 Bft)
25.10.2010 02:30 2,4 C 86 % 1015,2 hPa 0,0 mm 0,0 km/h (0 Bft) W 270 0 min 0 UV-I 0 W/m 1,6 km/h (1 Bft)
25.10.2010 02:40 2,3 C 86 % 1015,2 hPa 0,0 mm 0,0 km/h (0 Bft) W 270 0 min 0 UV-I 0 W/m 1,6 km/h (1 Bft)
25.10.2010 02:50 2,3 C 86 % 1015,2 hPa 0,0 mm 0,0 km/h (0 Bft) W 270 0 min 0 UV-I 0 W/m 1,6 km/h (1 Bft)
25.10.2010 03:00 2,3 C 86 % 1015,3 hPa 0,0 mm 0,0 km/h (0 Bft) W 270 0 min 0 UV-I 0 W/m 1,6 km/h (1 Bft)
25.10.2010 03:10 2,2 C 86 % 1015,4 hPa 0,0 mm 0,0 km/h (0 Bft) N 0 0 min 0 UV-I 0 W/m 0,0 km/h (0 Bft)
25.10.2010 03:20 2,1 C 86 % 1015,6 hPa 0,0 mm 0,0 km/h (0 Bft) N 0 0 min 0 UV-I 0 W/m 0,0 km/h (0 Bft)
25.10.2010 03:30 2,1 C 86 % 1015,8 hPa 0,0 mm 0,0 km/h (0 Bft) W 270 0 min 0 UV-I 0 W/m 1,6 km/h (1 Bft)
25.10.2010 03:40 1,9 C 87 % 1015,8 hPa 0,0 mm 0,0 km/h (0 Bft) W 270 0 min 0 UV-I 0 W/m 1,6 km/h (1 Bft)
25.10.2010 03:50 1,8 C 86 % 1015,8 hPa 0,0 mm 0,0 km/h (0 Bft) N 0 0 min 0 UV-I 0 W/m 0,0 km/h (0 Bft)
25.10.2010 04:00 1,7 C 86 % 1015,8 hPa 0,0 mm 0,0 km/h (0 Bft) W 270 0 min 0 UV-I 0 W/m 1,6 km/h (1 Bft)
25.10.2010 04:10 1,6 C 87 % 1015,9 hPa 0,0 mm 0,0 km/h (0 Bft) W 270 0 min 0 UV-I 0 W/m 1,6 km/h (1 Bft)
25.10.2010 04:20 1,6 C 87 % 1016,0 hPa 0,0 mm 0,0 km/h (0 Bft) W 270 0 min 0 UV-I 0 W/m 1,6 km/h (1 Bft)
25.10.2010 04:30 1,5 C 87 % 1016,1 hPa 0,0 mm 0,0 km/h (0 Bft) N 0 0 min 0 UV-I 0 W/m 0,0 km/h (0 Bft)
25.10.2010 04:40 1,4 C 87 % 1016,3 hPa 0,0 mm 0,0 km/h (0 Bft) W 270 0 min 0 UV-I 0 W/m 1,6 km/h (1 Bft)
25.10.2010 04:50 1,4 C 87 % 1016,3 hPa 0,0 mm 0,0 km/h (0 Bft) N 0 0 min 0 UV-I 0 W/m 0,0 km/h (0 Bft)
25.10.2010 05:00 1,4 C 87 % 1016,4 hPa 0,0 mm 0,0 km/h (0 Bft) W 270 0 min 0 UV-I 0 W/m 1,6 km/h (1 Bft)
25.10.2010 05:10 1,4 C 88 % 1016,5 hPa 0,0 mm 0,0 km/h (0 Bft) N 0 0 min 0 UV-I 0 W/m 0,0 km/h (0 Bft)
25.10.2010 05:20 1,4 C 88 % 1016,7 hPa 0,0 mm 0,0 km/h (0 Bft) N 0 0 min 0 UV-I 0 W/m 0,0 km/h (0 Bft)
25.10.2010 05:30 1,4 C 87 % 1016,8 hPa 0,0 mm 0,0 km/h (0 Bft) N 0 0 min 0 UV-I 0 W/m 0,0 km/h (0 Bft)
25.10.2010 05:40 1,3 C 87 % 1016,8 hPa 0,0 mm 0,0 km/h (0 Bft) W 270 0 min 0 UV-I 0 W/m 1,6 km/h (1 Bft)
25.10.2010 05:50 1,2 C 88 % 1016,9 hPa 0,0 mm 0,0 km/h (0 Bft) N 0 0 min 0 UV-I 0 W/m 0,0 km/h (0 Bft)
25.10.2010 06:00 1,1 C 87 % 1017,0 hPa 0,0 mm 0,0 km/h (0 Bft) N 0 0 min 0 UV-I 0 W/m 0,0 km/h (0 Bft)
25.10.2010 06:10 1,0 C 88 % 1017,2 hPa 0,0 mm 0,0 km/h (0 Bft) N 0 0 min 0 UV-I 0 W/m 0,0 km/h (0 Bft)
25.10.2010 06:20 0,9 C 88 % 1017,3 hPa 0,0 mm 0,0 km/h (0 Bft) N 0 0 min 0 UV-I 0 W/m 0,0 km/h (0 Bft)
25.10.2010 06:30 0,8 C 88 % 1017,3 hPa 0,0 mm 0,0 km/h (0 Bft) N 0 0 min 0 UV-I 0 W/m 0,0 km/h (0 Bft)
25.10.2010 06:40 0,8 C 88 % 1017,5 hPa 0,0 mm 0,0 km/h (0 Bft) N 0 0 min 0 UV-I 0 W/m 0,0 km/h (0 Bft)
25.10.2010 06:50 0,9 C 88 % 1017,6 hPa 0,0 mm 0,0 km/h (0 Bft) N 0 0 min 0 UV-I 0 W/m 0,0 km/h (0 Bft)
25.10.2010 07:00 0,9 C 89 % 1017,7 hPa 0,0 mm 0,0 km/h (0 Bft) N 0 0 min 0 UV-I 0 W/m 0,0 km/h (0 Bft)
25.10.2010 07:10 1,1 C 89 % 1017,9 hPa 0,0 mm 0,0 km/h (0 Bft) N 0 0 min 0 UV-I 0 W/m 0,0 km/h (0 Bft)
25.10.2010 07:20 1,3 C 89 % 1017,8 hPa 0,0 mm 0,0 km/h (0 Bft) W 270 0 min 0 UV-I 0 W/m 1,6 km/h (1 Bft)
25.10.2010 07:30 1,4 C 89 % 1018,0 hPa 0,0 mm 0,0 km/h (0 Bft) W 270 0 min 0 UV-I 0 W/m 1,6 km/h (1 Bft)
25.10.2010 07:40 1,6 C 90 % 1018,2 hPa 0,0 mm 0,0 km/h (0 Bft) W 270 0 min 0 UV-I 0 W/m 3,2 km/h (1 Bft)
25.10.2010 07:50 1,8 C 90 % 1018,5 hPa 0,0 mm 0,0 km/h (0 Bft) W 270 0 min 0 UV-I 0 W/m 3,2 km/h (1 Bft)
25.10.2010 08:00 2,0 C 90 % 1018,6 hPa 0,0 mm 0,1 km/h (0 Bft) W 269 0 min 0 UV-I 0 W/m 1,6 km/h (1 Bft)
25.10.2010 08:10 2,1 C 90 % 1018,6 hPa 0,0 mm 0,0 km/h (0 Bft) W 270 0 min 0 UV-I 0 W/m 1,6 km/h (1 Bft)
25.10.2010 08:20 2,1 C 90 % 1018,8 hPa 0,0 mm 0,0 km/h (0 Bft) W 270 0 min 0 UV-I 0 W/m 4,8 km/h (1 Bft)
25.10.2010 08:30 2,2 C 90 % 1019,0 hPa 0,0 mm 0,0 km/h (0 Bft) W 270 0 min 0 UV-I 5 W/m 3,2 km/h (1 Bft)
25.10.2010 08:40 2,3 C 90 % 1019,4 hPa 0,0 mm 0,0 km/h (0 Bft) W 270 0 min 0 UV-I 7 W/m 4,8 km/h (1 Bft)
25.10.2010 08:50 2,4 C 90 % 1019,6 hPa 0,0 mm 0,0 km/h (0 Bft) W 270 0 min 0 UV-I 26 W/m 4,8 km/h (1 Bft)
25.10.2010 09:00 2,4 C 90 % 1019,8 hPa 0,0 mm 0,0 km/h (0 Bft) W 270 0 min 0 UV-I 25 W/m 4,8 km/h (1 Bft)
25.10.2010 09:10 2,6 C 90 % 1019,8 hPa 0,0 mm 0,0 km/h (0 Bft) W 270 0 min 0 UV-I 30 W/m 4,8 km/h (1 Bft)
25.10.2010 09:20 2,6 C 90 % 1020,0 hPa 0,0 mm 0,0 km/h (0 Bft) W 270 0 min 0 UV-I 39 W/m 1,6 km/h (1 Bft)
25.10.2010 09:30 2,7 C 91 % 1020,4 hPa 0,0 mm 0,0 km/h (0 Bft) W 270 0 min 0 UV-I 37 W/m 3,2 km/h (1 Bft)
25.10.2010 09:40 2,8 C 91 % 1020,6 hPa 0,0 mm 0,0 km/h (0 Bft) W 270 0 min 0 UV-I 58 W/m 4,8 km/h (1 Bft)
25.10.2010 09:50 2,9 C 91 % 1020,7 hPa 0,0 mm 0,0 km/h (0 Bft) W 270 0 min 0 UV-I 83 W/m 3,2 km/h (1 Bft)
25.10.2010 10:00 3,0 C 91 % 1020,8 hPa 0,0 mm 0,0 km/h (0 Bft) W 270 10 min 0 UV-I 148 W/m 3,2 km/h (1 Bft)
25.10.2010 10:10 3,2 C 91 % 1021,0 hPa 0,0 mm 0,0 km/h (0 Bft) W 270 10 min 1 UV-I 211 W/m 4,8 km/h (1 Bft)
25.10.2010 10:20 3,7 C 91 % 1021,1 hPa 0,0 mm 1,6 km/h (1 Bft) W 270 10 min 1 UV-I 241 W/m 6,4 km/h (2 Bft)
25.10.2010 10:30 4,1 C 91 % 1021,2 hPa 0,0 mm 1,6 km/h (1 Bft) W 270 10 min 1 UV-I 346 W/m 8,0 km/h (2 Bft)
25.10.2010 10:40 4,2 C 91 % 1021,4 hPa 0,0 mm 1,6 km/h (1 Bft) W 270 10 min 1 UV-I 223 W/m 9,7 km/h (2 Bft)
25.10.2010 10:50 4,2 C 91 % 1021,3 hPa 0,0 mm 3,2 km/h (1 Bft) W 270 10 min 1 UV-I 274 W/m 9,7 km/h (2 Bft)
25.10.2010 11:00 4,4 C 90 % 1021,3 hPa 0,0 mm 1,6 km/h (1 Bft) W-SW 247 10 min 1 UV-I 378 W/m 6,4 km/h (2 Bft)
25.10.2010 11:10 4,8 C 89 % 1021,3 hPa 0,0 mm 3,2 km/h (1 Bft) W 270 10 min 1 UV-I 462 W/m 9,7 km/h (2 Bft)
25.10.2010 11:20 5,0 C 89 % 1021,3 hPa 0,0 mm 1,6 km/h (1 Bft) W-NW 292 10 min 1 UV-I 260 W/m 8,0 km/h (2 Bft)
25.10.2010 11:30 5,1 C 88 % 1021,3 hPa 0,0 mm 1,6 km/h (1 Bft) W-NW 292 10 min 1 UV-I 267 W/m 8,0 km/h (2 Bft)
25.10.2010 11:40 5,3 C 88 % 1021,3 hPa 0,0 mm 1,6 km/h (1 Bft) W 270 10 min 1 UV-I 464 W/m 8,0 km/h (2 Bft)
25.10.2010 11:50 5,7 C 86 % 1021,4 hPa 0,0 mm 1,6 km/h (1 Bft) W 270 10 min 1 UV-I 469 W/m 8,0 km/h (2 Bft)
25.10.2010 12:00 6,1 C 86 % 1021,6 hPa 0,0 mm 1,6 km/h (1 Bft) N-NW 337 10 min 2 UV-I 545 W/m 6,4 km/h (2 Bft)
25.10.2010 12:10 6,4 C 85 % 1021,7 hPa 0,0 mm 0,0 km/h (0 Bft) N 360 0 min 1 UV-I 206 W/m 3,2 km/h (1 Bft)
25.10.2010 12:20 6,3 C 85 % 1021,9 hPa 0,0 mm 0,0 km/h (0 Bft) N 360 10 min 2 UV-I 545 W/m 3,2 km/h (1 Bft)
25.10.2010 12:30 6,9 C 83 % 1022,0 hPa 0,0 mm 0,0 km/h (0 Bft) N 360 10 min 2 UV-I 591 W/m 6,4 km/h (2 Bft)
25.10.2010 12:40 6,9 C 82 % 1022,1 hPa 0,0 mm 0,0 km/h (0 Bft) N 360 10 min 2 UV-I 478 W/m 4,8 km/h (1 Bft)
25.10.2010 12:50 7,4 C 81 % 1022,2 hPa 0,0 mm 1,6 km/h (1 Bft) NO 45 10 min 2 UV-I 541 W/m 6,4 km/h (2 Bft)
25.10.2010 13:00 7,7 C 82 % 1022,2 hPa 0,0 mm 0,0 km/h (0 Bft) O-NO 67 10 min 2 UV-I 485 W/m 4,8 km/h (1 Bft)
25.10.2010 13:10 7,8 C 81 % 1022,2 hPa 0,0 mm 0,0 km/h (0 Bft) O-NO 67 10 min 2 UV-I 492 W/m 4,8 km/h (1 Bft)
25.10.2010 13:20 8,1 C 78 % 1022,0 hPa 0,0 mm 0,0 km/h (0 Bft) O-NO 67 10 min 2 UV-I 490 W/m 3,2 km/h (1 Bft)
25.10.2010 13:30 8,3 C 78 % 1022,0 hPa 0,0 mm 0,0 km/h (0 Bft) O-NO 67 10 min 2 UV-I 471 W/m 6,4 km/h (2 Bft)
25.10.2010 13:40 8,6 C 76 % 1021,8 hPa 0,0 mm 1,6 km/h (1 Bft) SW 225 10 min 2 UV-I 480 W/m 6,4 km/h (2 Bft)
25.10.2010 13:50 8,9 C 74 % 1021,9 hPa 0,0 mm 1,6 km/h (1 Bft) W-SW 247 10 min 2 UV-I 497 W/m 4,8 km/h (1 Bft)
25.10.2010 14:00 9,3 C 73 % 1022,1 hPa 0,0 mm 0,0 km/h (0 Bft) W-SW 247 10 min 2 UV-I 557 W/m 3,2 km/h (1 Bft)
25.10.2010 14:10 9,2 C 72 % 1022,1 hPa 0,0 mm 1,6 km/h (1 Bft) W 270 0 min 1 UV-I 134 W/m 6,4 km/h (2 Bft)
25.10.2010 14:20 8,8 C 70 % 1022,3 hPa 0,3 mm 3,2 km/h (1 Bft) NW 315 10 min 2 UV-I 476 W/m 11,3 km/h (2 Bft)
25.10.2010 14:30 9,3 C 68 % 1022,2 hPa 0,0 mm 4,8 km/h (1 Bft) W-NW 292 10 min 2 UV-I 577 W/m 17,7 km/h (3 Bft)
25.10.2010 14:40 9,9 C 68 % 1022,2 hPa 0,0 mm 6,4 km/h (2 Bft) W-NW 292 10 min 1 UV-I 584 W/m 16,1 km/h (3 Bft)
25.10.2010 14:50 9,5 C 69 % 1022,4 hPa 0,0 mm 4,8 km/h (1 Bft) W 270 10 min 1 UV-I 541 W/m 16,1 km/h (3 Bft)
25.10.2010 15:00 9,8 C 66 % 1022,5 hPa 0,0 mm 3,2 km/h (1 Bft) W-NW 292 0 min 1 UV-I 188 W/m 11,3 km/h (2 Bft)
25.10.2010 15:10 9,5 C 67 % 1022,4 hPa 0,0 mm 3,2 km/h (1 Bft) NW 315 0 min 1 UV-I 83 W/m 11,3 km/h (2 Bft)
25.10.2010 15:20 9,2 C 65 % 1022,5 hPa 0,0 mm 4,8 km/h (1 Bft) NW 315 10 min 1 UV-I 394 W/m 16,1 km/h (3 Bft)
25.10.2010 15:30 9,4 C 65 % 1022,6 hPa 0,0 mm 3,2 km/h (1 Bft) NW 315 10 min 1 UV-I 404 W/m 12,9 km/h (3 Bft)
25.10.2010 15:40 9,5 C 63 % 1022,7 hPa 0,0 mm 6,4 km/h (2 Bft) NW 315 0 min 1 UV-I 113 W/m 19,3 km/h (3 Bft)
25.10.2010 15:50 9,4 C 63 % 1022,7 hPa 0,0 mm 4,8 km/h (1 Bft) W-NW 292 10 min 1 UV-I 195 W/m 16,1 km/h (3 Bft)
25.10.2010 16:00 9,9 C 63 % 1022,7 hPa 0,0 mm 1,9 km/h (1 Bft) N 5 10 min 1 UV-I 165 W/m 6,4 km/h (2 Bft)
25.10.2010 16:10 9,7 C 63 % 1022,8 hPa 0,0 mm 1,6 km/h (1 Bft) NW 315 0 min 1 UV-I 130 W/m 9,7 km/h (2 Bft)
25.10.2010 16:20 9,4 C 64 % 1022,7 hPa 0,0 mm 1,6 km/h (1 Bft) NW 315 10 min 1 UV-I 236 W/m 8,0 km/h (2 Bft)
25.10.2010 16:30 9,3 C 64 % 1022,8 hPa 0,0 mm 3,2 km/h (1 Bft) W-NW 292 10 min 1 UV-I 211 W/m 14,5 km/h (3 Bft)
25.10.2010 16:40 9,4 C 64 % 1022,8 hPa 0,0 mm 3,2 km/h (1 Bft) NW 315 10 min 1 UV-I 239 W/m 9,7 km/h (2 Bft)
25.10.2010 16:50 9,7 C 63 % 1022,6 hPa 0,0 mm 3,2 km/h (1 Bft) NW 315 10 min 1 UV-I 221 W/m 11,3 km/h (2 Bft)
25.10.2010 17:00 9,7 C 63 % 1022,8 hPa 0,0 mm 1,6 km/h (1 Bft) NW 315 10 min 0 UV-I 185 W/m 6,4 km/h (2 Bft)
25.10.2010 17:10 9,6 C 63 % 1022,9 hPa 0,0 mm 1,6 km/h (1 Bft) W-NW 292 10 min 0 UV-I 123 W/m 8,0 km/h (2 Bft)
25.10.2010 17:20 9,4 C 64 % 1022,8 hPa 0,0 mm 3,2 km/h (1 Bft) W 270 10 min 0 UV-I 79 W/m 9,7 km/h (2 Bft)
25.10.2010 17:30 9,3 C 65 % 1023,0 hPa 0,0 mm 4,8 km/h (1 Bft) W-NW 292 0 min 0 UV-I 47 W/m 16,1 km/h (3 Bft)
25.10.2010 17:40 8,9 C 66 % 1023,1 hPa 0,0 mm 3,2 km/h (1 Bft) W-NW 292 0 min 0 UV-I 26 W/m 9,7 km/h (2 Bft)
25.10.2010 17:50 8,5 C 68 % 1023,2 hPa 0,0 mm 1,6 km/h (1 Bft) W-NW 292 10 min 0 UV-I 30 W/m 6,4 km/h (2 Bft)
25.10.2010 18:00 8,2 C 70 % 1023,4 hPa 0,0 mm 1,6 km/h (1 Bft) W-NW 292 0 min 0 UV-I 26 W/m 6,4 km/h (2 Bft)
25.10.2010 18:10 7,9 C 71 % 1023,4 hPa 0,0 mm 0,0 km/h (0 Bft) W-NW 292 0 min 0 UV-I 9 W/m 3,2 km/h (1 Bft)
25.10.2010 18:20 7,6 C 72 % 1023,5 hPa 0,0 mm 0,0 km/h (0 Bft) W-NW 292 0 min 0 UV-I 0 W/m 4,8 km/h (1 Bft)
25.10.2010 18:30 7,2 C 74 % 1023,6 hPa 0,0 mm 0,0 km/h (0 Bft) W-NW 292 0 min 0 UV-I 0 W/m 3,2 km/h (1 Bft)
25.10.2010 18:40 6,9 C 76 % 1023,7 hPa 0,0 mm 0,0 km/h (0 Bft) W-NW 292 0 min 0 UV-I 0 W/m 3,2 km/h (1 Bft)
25.10.2010 18:50 6,6 C 77 % 1023,9 hPa 0,0 mm 0,0 km/h (0 Bft) W-NW 292 0 min 0 UV-I 0 W/m 1,6 km/h (1 Bft)
25.10.2010 19:00 6,2 C 79 % 1024,1 hPa 0,0 mm 0,0 km/h (0 Bft) W-NW 292 0 min 0 UV-I 0 W/m 1,6 km/h (1 Bft)
25.10.2010 19:10 5,9 C 80 % 1024,2 hPa 0,0 mm 0,0 km/h (0 Bft) N 0 0 min 0 UV-I 0 W/m 0,0 km/h (0 Bft)
25.10.2010 19:20 5,8 C 80 % 1024,3 hPa 0,0 mm 0,0 km/h (0 Bft) W-NW 292 0 min 0 UV-I 0 W/m 1,6 km/h (1 Bft)
25.10.2010 19:30 5,6 C 81 % 1024,4 hPa 0,0 mm 0,0 km/h (0 Bft) W-NW 292 0 min 0 UV-I 0 W/m 1,6 km/h (1 Bft)
25.10.2010 19:40 5,4 C 81 % 1024,4 hPa 0,0 mm 0,0 km/h (0 Bft) W-NW 292 0 min 0 UV-I 0 W/m 3,2 km/h (1 Bft)
25.10.2010 19:50 5,3 C 82 % 1024,6 hPa 0,0 mm 0,0 km/h (0 Bft) W-NW 292 0 min 0 UV-I 0 W/m 3,2 km/h (1 Bft)
25.10.2010 20:00 5,2 C 82 % 1024,5 hPa 0,0 mm 0,0 km/h (0 Bft) W-NW 292 0 min 0 UV-I 0 W/m 1,6 km/h (1 Bft)
25.10.2010 20:10 5,1 C 83 % 1024,7 hPa 0,0 mm 0,0 km/h (0 Bft) W-NW 292 0 min 0 UV-I 0 W/m 3,2 km/h (1 Bft)
25.10.2010 20:20 5,0 C 83 % 1024,7 hPa 0,0 mm 0,0 km/h (0 Bft) W-NW 292 0 min 0 UV-I 0 W/m 1,6 km/h (1 Bft)
25.10.2010 20:30 4,9 C 83 % 1024,5 hPa 0,0 mm 0,0 km/h (0 Bft) W-NW 292 0 min 0 UV-I 0 W/m 1,6 km/h (1 Bft)
25.10.2010 20:40 4,9 C 83 % 1024,7 hPa 0,0 mm 0,0 km/h (0 Bft) W-NW 292 0 min 0 UV-I 0 W/m 1,6 km/h (1 Bft)
25.10.2010 20:50 4,9 C 83 % 1024,7 hPa 0,0 mm 0,0 km/h (0 Bft) W-NW 292 0 min 0 UV-I 0 W/m 1,6 km/h (1 Bft)
25.10.2010 21:00 4,8 C 84 % 1024,7 hPa 0,0 mm 0,0 km/h (0 Bft) W-NW 292 0 min 0 UV-I 0 W/m 3,2 km/h (1 Bft)
25.10.2010 21:10 4,7 C 84 % 1024,9 hPa 0,0 mm 0,3 km/h (0 Bft) W-NW 293 0 min 0 UV-I 0 W/m 3,2 km/h (1 Bft)
25.10.2010 21:20 4,8 C 84 % 1024,9 hPa 0,0 mm 1,0 km/h (0 Bft) W 277 0 min 0 UV-I 0 W/m 4,8 km/h (1 Bft)
25.10.2010 21:30 4,9 C 84 % 1025,0 hPa 0,0 mm 1,2 km/h (1 Bft) W 261 0 min 0 UV-I 0 W/m 6,4 km/h (2 Bft)
25.10.2010 21:40 4,9 C 83 % 1025,1 hPa 0,0 mm 0,8 km/h (0 Bft) W 260 0 min 0 UV-I 0 W/m 4,8 km/h (1 Bft)
25.10.2010 21:50 4,9 C 83 % 1025,2 hPa 0,0 mm 1,2 km/h (1 Bft) W-SW 257 0 min 0 UV-I 0 W/m 8,0 km/h (2 Bft)
25.10.2010 22:00 4,7 C 83 % 1025,4 hPa 0,0 mm 0,7 km/h (0 Bft) W-SW 250 0 min 0 UV-I 0 W/m 8,0 km/h (2 Bft)
25.10.2010 22:10 4,6 C 84 % 1025,5 hPa 0,0 mm 0,6 km/h (0 Bft) W-SW 251 0 min 0 UV-I 0 W/m 4,8 km/h (1 Bft)
25.10.2010 22:20 4,3 C 84 % 1025,4 hPa 0,0 mm 0,2 km/h (0 Bft) W-SW 251 0 min 0 UV-I 0 W/m 4,8 km/h (1 Bft)
25.10.2010 22:30 4,2 C 85 % 1025,5 hPa 0,0 mm 0,1 km/h (0 Bft) W-SW 251 0 min 0 UV-I 0 W/m 3,2 km/h (1 Bft)
25.10.2010 22:40 4,0 C 85 % 1025,4 hPa 0,0 mm 0,2 km/h (0 Bft) W-SW 250 0 min 0 UV-I 0 W/m 3,2 km/h (1 Bft)
25.10.2010 22:50 4,1 C 86 % 1025,6 hPa 0,0 mm 0,8 km/h (0 Bft) W-SW 245 0 min 0 UV-I 0 W/m 8,0 km/h (2 Bft)
25.10.2010 23:00 4,2 C 86 % 1025,5 hPa 0,0 mm 0,7 km/h (0 Bft) W-SW 244 0 min 0 UV-I 0 W/m 6,4 km/h (2 Bft)
25.10.2010 23:10 4,3 C 86 % 1025,5 hPa 0,0 mm 1,1 km/h (1 Bft) W-SW 245 0 min 0 UV-I 0 W/m 6,4 km/h (2 Bft)
25.10.2010 23:20 4,2 C 86 % 1025,5 hPa 0,0 mm 0,7 km/h (0 Bft) W-SW 242 0 min 0 UV-I 0 W/m 6,4 km/h (2 Bft)
25.10.2010 23:30 4,2 C 86 % 1025,6 hPa 0,0 mm 0,9 km/h (0 Bft) W-SW 241 0 min 0 UV-I 0 W/m 4,8 km/h (1 Bft)
25.10.2010 23:40 4,2 C 86 % 1025,6 hPa 0,0 mm 0,8 km/h (0 Bft) W-SW 241 0 min 0 UV-I 0 W/m 6,4 km/h (2 Bft)
25.10.2010 23:50 4,1 C 86 % 1025,7 hPa 0,0 mm 1,1 km/h (1 Bft) W-SW 242 0 min 0 UV-I 0 W/m 6,4 km/h (2 Bft)
_ Min-Zeit 06:20 15:40 00:00 - 00:20 - - - - - 01:10
Minimum _ 0,8 C 63 % 1013,7 hPa - 0,0 km/h (0 Bft) - - - - - 0,0 km/h (0 Bft)
_ Max-Zeit 14:40 09:30 23:50 14:20 14:40 - - 10:00 12:30 12:30 15:40
Maximum _ 10,0 C 91 % 1025,7 hPa 0,3 mm 6,4 km/h
W-NW (2 Bft)
- - 10 min 2 UV-I 591 W/m 19,3 km/h
W-NW (3 Bft)
Durchschnitt _ 4,8 C 82 % 1020,5 hPa #0,3 mm 0,8 km/h (0 Bft) W-NW - #6:40 h 1 UV-I 269 W/m 4,6 km/h (1 Bft)